Revere Beach, Massachusetts
Current Conditions -  °F | °C
As of 1:54 AM on Thursday 18 Dec 2014 (Local Time) from KBOS Reporting Station
Overcast Overcast  
Wind Chill: 32°   Ceiling: 9000
Heat Index: 40°   Visibility: 10mi
Dew Point: 31°   Wind: 14mph
Humidity: 70%   Direction: 270°W
Pressure: 29.72"   Gusts: 21mph
Location:  42.4188°N, 71.0044°W
Report Text: KBOS 180654Z 27012G18KT 10SM SCT045 OVC090 04/M01 A2972 RMK AO2 SLP063 T00441006
Loading
Personal Weather Stations






























Interactive Weather Map New forecast layout! Learn more

10-Day Weather Forecast

Advertisements
Track Severe Weather on mobile